Wega — DBBC — position and weather

sailwx.info

Track history (hours):
 
Tides and Currents Weather Stations Pressure Air Temp Water Temp Dewpoint Dewpoint Depression Visibility Wind Speed Wind Dir Waves Ship Positions

Oceanographic research ship Wega (Germany)

Detailed information on ship capabilities available from University of Delaware's Ocean Information Center.

Last reported at 2019-Apr-18 10:00 UTC. Time now 2019-Apr-18 10:39 UTC.
Position N 53°54' E 007°36'.

Length 52.1 m; beam 11.4 m; draft 3.5 m.

Type: Law enforcement. MMSI: 211205970.

Wind from 070 at 16 knots

Barometer 1031.2 mb
Air temperature 8.1 ° C
Dewpoint 5.3 ° C
Water temperature 7.9 ° C

Date/timePositionNaut miles runAvg speedWind from/ knotsBaromVisibWave heightAir tempDewpointWater temp
2019-Apr-18 10:00N 53°54' E 007°36'1 3.8 070 / 161031.2 8.1 5.3 7.9
2019-Apr-18 09:50N 53°55' E 007°36'4 4.3
2019-Apr-18 09:00N 53°54' E 007°30'114.1 070 / 161031.0 7.9 4.8 7.9
2019-Apr-18 08:57N 53°54' E 007°31'0 0.5
2019-Apr-18 08:22N 53°54' E 007°30'3 8.8
2019-Apr-18 08:00N 53°54' E 007°36'1 2.1 080 / 161031.1 9.2 4.9 7.8
2019-Apr-18 07:45N 53°55' E 007°36'3 8.1
2019-Apr-18 07:26N 53°55' E 007°40'3 8.1
2019-Apr-18 07:00N 53°56' E 007°46'3225.6
2019-Apr-18 07:00N 53°54' E 007°42'1 2.4 080 / 141030.8 8.1 4.2 7.7
2019-Apr-18 06:29N 53°55' E 007°41'2 4.8
2019-Apr-18 06:00N 53°53' E 007°39'5409.1
2019-Apr-18 06:00N 53°48' E 007°42'3 3.9 080 / 161030.4 8.1 4.4 7.9
2019-Apr-18 05:12N 53°51' E 007°40'315.6
2019-Apr-18 05:00N 53°48' E 007°42'31403.4 080 / 161029.8 8.2 4.4 7.9
2019-Apr-18 04:59N 53°51' E 007°40'0 0.0
2019-Apr-18 04:02N 53°51' E 007°40'365.5
2019-Apr-18 04:00N 53°48' E 007°42'3 6.9 080 / 161029.5 8.6 4.6 7.9
2019-Apr-18 03:32N 53°51' E 007°40'3 5.7
2019-Apr-18 03:00N 53°48' E 007°42'0 0.0 090 / 121029.5 8.8 5.0 7.8
2019-Apr-18 02:00N 53°48' E 007°42'0 0.0 090 / 161029.1 9.1 5.1 7.8
2019-Apr-18 01:00N 53°48' E 007°42'0 0.0 080 / 171028.8 8.8 5.6 7.8
2019-Apr-18 00:00N 53°48' E 007°42'327.1 080 / 171028.7 8.9 5.9 7.8
2019-Apr-17 23:53N 53°51' E 007°40'3 3.5
2019-Apr-17 23:00N 53°48' E 007°42'0 0.0 070 / 171028.3 9.0 5.9 7.7
2019-Apr-17 22:00N 53°48' E 007°42'0 0.0 070 / 171027.9 9.3 6.1 7.8
2019-Apr-17 21:00N 53°48' E 007°42'0 0.0 080 / 171027.5 9.4 6.1 7.8
2019-Apr-17 20:00N 53°48' E 007°42'0 0.0 070 / 161027.2 9.6 5.8 7.8
2019-Apr-17 18:00N 53°48' E 007°42'7 7.0 060 / 171026.2 10.8 4.6 7.9
2019-Apr-17 17:00N 53°54' E 007°36'0 0.0 060 / 191026.1 10.6 4.1 7.9
2019-Apr-17 16:00N 53°54' E 007°36'4 3.5 060 / 171026.5 10.6 3.8 8.1
2019-Apr-17 15:00N 53°54' E 007°42'7 7.1 060 / 171026.4 10.5 4.2 8.0
2019-Apr-17 14:00N 53°54' E 007°30'4 3.5 070 / 211026.4 10.6 3.2 8.1
2019-Apr-17 13:00N 53°54' E 007°36'11 6.6 080 / 191026.6 11.8 4.1 8.0
2019-Apr-17 11:18N 53°52' E 007°55'412.7
2019-Apr-17 10:58N 53°51' E 008°02'611.9
2019-Apr-17 10:29N 53°47' E 008°09'511.3
2019-Apr-17 10:00N 53°44' E 008°16'510.5
2019-Apr-17 09:30N 53°40' E 008°23'5 9.6
2019-Apr-17 09:00N 53°37' E 008°29'5 9.3
2019-Apr-17 08:30N 53°33' E 008°33'2 3.5
2019-Apr-17 08:00N 53°32' E 008°35'1 1.0
2019-Apr-17 07:28N 53°31' E 008°35'0 0.0
2019-Apr-17 06:58N 53°31' E 008°35'0 0.0
2019-Apr-17 06:29N 53°31' E 008°35'0 0.0
2019-Apr-17 06:00N 53°31' E 008°35'0 0.0
2019-Apr-17 05:28N 53°31' E 008°35'0 0.0
2019-Apr-17 05:00N 53°31' E 008°35'0 0.0
2019-Apr-17 04:30N 53°31' E 008°35'0 0.0
2019-Apr-17 04:00N 53°31' E 008°35'0 0.0
2019-Apr-17 03:29N 53°31' E 008°35'0 0.0
2019-Apr-17 02:59N 53°31' E 008°35'0 0.0
2019-Apr-17 02:29N 53°31' E 008°35'0 0.0
2019-Apr-17 01:59N 53°31' E 008°35'0 0.0
2019-Apr-17 01:30N 53°31' E 008°35'0 0.0
2019-Apr-17 00:58N 53°31' E 008°35'0 0.0
2019-Apr-17 00:28N 53°31' E 008°35'0 0.0
2019-Apr-16 23:59N 53°31' E 008°35'0 0.0
2019-Apr-16 23:29N 53°31' E 008°35'0 0.0
2019-Apr-16 22:59N 53°31' E 008°35'0 0.0
2019-Apr-16 22:29N 53°31' E 008°35'0 0.0
2019-Apr-16 21:59N 53°31' E 008°35'0 0.0
2019-Apr-16 21:29N 53°31' E 008°35'0 0.0
2019-Apr-16 21:00N 53°31' E 008°35'0 0.0
2019-Apr-16 20:30N 53°31' E 008°35'0 0.0
2019-Apr-16 20:00N 53°31' E 008°35'0 0.0
2019-Apr-16 19:30N 53°31' E 008°35'0 0.0
2019-Apr-16 18:57N 53°31' E 008°35'0 0.0
2019-Apr-16 18:30N 53°31' E 008°35'0 0.0
2019-Apr-16 18:00N 53°31' E 008°35'0 0.0
2019-Apr-16 17:30N 53°31' E 008°35'0 0.0
2019-Apr-16 17:00N 53°31' E 008°35'0 0.0
2019-Apr-16 16:31N 53°31' E 008°35'0 0.0
2019-Apr-16 16:00N 53°31' E 008°35'0 0.0
2019-Apr-16 15:30N 53°31' E 008°35'0 0.0
2019-Apr-16 15:00N 53°31' E 008°35'0 0.0
2019-Apr-16 14:29N 53°31' E 008°35'0 0.0
2019-Apr-16 14:00N 53°31' E 008°35'0 0.0
2019-Apr-16 13:30N 53°31' E 008°35'0 0.0
2019-Apr-16 13:00N 53°31' E 008°35'0 0.0
2019-Apr-16 12:30N 53°31' E 008°35'0 0.0
2019-Apr-16 12:00N 53°31' E 008°35'0 0.0
2019-Apr-16 11:27N 53°31' E 008°35'0 0.0
2019-Apr-16 11:00N 53°31' E 008°35'0 0.0
2019-Apr-16 10:30N 53°31' E 008°35'0 0.0
2019-Apr-16 10:00N 53°31' E 008°35'0 0.0
2019-Apr-16 09:30N 53°31' E 008°35'0 0.0
2019-Apr-16 09:00N 53°31' E 008°35'0 0.0
2019-Apr-16 08:28N 53°31' E 008°35'0 0.0
2019-Apr-16 08:00N 53°31' E 008°35'0 0.0
2019-Apr-16 07:30N 53°31' E 008°35'0 0.0
2019-Apr-16 06:59N 53°31' E 008°35'0 0.0
2019-Apr-16 06:30N 53°31' E 008°35'0 0.0
2019-Apr-16 06:00N 53°31' E 008°35'0 0.0
2019-Apr-16 05:30N 53°31' E 008°35'0 0.0
2019-Apr-16 05:00N 53°31' E 008°35'0 0.0
2019-Apr-16 04:27N 53°31' E 008°35'0 0.0
2019-Apr-16 04:00N 53°31' E 008°35'0 0.0
2019-Apr-16 03:29N 53°31' E 008°35'0 0.0
2019-Apr-16 02:59N 53°31' E 008°35'0 0.0
2019-Apr-16 02:29N 53°31' E 008°35'0 0.0
2019-Apr-16 01:59N 53°31' E 008°35'0 0.0
2019-Apr-16 01:26N 53°31' E 008°35'0 0.0
2019-Apr-16 00:59N 53°31' E 008°35'0 0.0
2019-Apr-16 00:28N 53°31' E 008°35'0 0.0
2019-Apr-15 23:58N 53°31' E 008°35'0 0.0
2019-Apr-15 23:28N 53°31' E 008°35'0 0.0
2019-Apr-15 22:58N 53°31' E 008°35'0 0.0
2019-Apr-15 22:28N 53°31' E 008°35'0 0.0
2019-Apr-15 21:59N 53°31' E 008°35'0 0.0
2019-Apr-15 21:28N 53°31' E 008°35'0 0.0
2019-Apr-15 20:58N 53°31' E 008°35'0 0.0
2019-Apr-15 20:28N 53°31' E 008°35'0 0.0
2019-Apr-15 19:58N 53°31' E 008°35'0 0.0
2019-Apr-15 19:28N 53°31' E 008°35'0 0.0
2019-Apr-15 19:00N 53°31' E 008°35'0 0.0
2019-Apr-15 18:28N 53°31' E 008°35'0 0.0
2019-Apr-15 17:58N 53°31' E 008°35'0 0.0
2019-Apr-15 17:28N 53°31' E 008°35'0 0.0
2019-Apr-15 16:58N 53°31' E 008°35'0 0.0
2019-Apr-15 16:28N 53°31' E 008°35'0 0.0
2019-Apr-15 15:58N 53°31' E 008°35'0 0.0
2019-Apr-15 15:28N 53°31' E 008°35'0 0.0
2019-Apr-15 14:58N 53°31' E 008°35'0 0.0
2019-Apr-15 14:28N 53°31' E 008°35'0 0.0
2019-Apr-15 13:58N 53°31' E 008°35'0 0.0
2019-Apr-15 13:28N 53°31' E 008°35'0 0.0
2019-Apr-15 12:57N 53°31' E 008°35'0 0.0
2019-Apr-15 12:30N 53°31' E 008°35'0 0.0
2019-Apr-15 12:00N 53°31' E 008°35'0 0.0
2019-Apr-15 11:30N 53°31' E 008°35'0 0.0
2019-Apr-15 10:59N 53°31' E 008°35'0 0.0
2019-Apr-15 10:30N 53°31' E 008°35'0 0.0
2019-Apr-15 09:58N 53°31' E 008°35'0 0.0
2019-Apr-15 09:29N 53°31' E 008°35'0 0.0
2019-Apr-15 09:00N 53°31' E 008°35'0 0.0
2019-Apr-15 08:28N 53°31' E 008°35'0 0.0
2019-Apr-15 07:58N 53°31' E 008°35'0 0.0
2019-Apr-15 07:30N 53°31' E 008°35'0 0.0
2019-Apr-15 07:00N 53°31' E 008°35'0 0.0
2019-Apr-15 06:28N 53°31' E 008°35'0 0.0
2019-Apr-15 05:58N 53°31' E 008°35'0 0.0
2019-Apr-15 05:28N 53°31' E 008°35'0 0.0
2019-Apr-15 04:58N 53°31' E 008°35'0 0.0
2019-Apr-15 04:28N 53°31' E 008°35'0 0.0
2019-Apr-15 04:00N 53°31' E 008°35'0 0.0
2019-Apr-15 03:30N 53°31' E 008°35'0 0.0
2019-Apr-15 03:00N 53°31' E 008°35'0 0.0
2019-Apr-15 02:29N 53°31' E 008°35'0 0.0
2019-Apr-15 02:00N 53°31' E 008°35'0 0.0
2019-Apr-15 01:28N 53°31' E 008°35'0 0.0
2019-Apr-15 00:58N 53°31' E 008°35'0 0.0
2019-Apr-15 00:28N 53°31' E 008°35'0 0.0
2019-Apr-14 23:58N 53°31' E 008°35'0 0.0
2019-Apr-14 23:28N 53°31' E 008°35'0 0.0
2019-Apr-14 22:58N 53°31' E 008°35'0 0.0
2019-Apr-14 22:28N 53°31' E 008°35'0 0.0
2019-Apr-14 21:58N 53°31' E 008°35'0 0.0
2019-Apr-14 21:28N 53°31' E 008°35'0 0.0
2019-Apr-14 20:58N 53°31' E 008°35'0 0.0
2019-Apr-14 20:28N 53°31' E 008°35'0 0.0
2019-Apr-14 19:58N 53°31' E 008°35'0 0.0
2019-Apr-14 19:28N 53°31' E 008°35'0 0.0
2019-Apr-14 18:58N 53°31' E 008°35'0 0.0
2019-Apr-14 18:27N 53°31' E 008°35'0 0.0
2019-Apr-14 18:00N 53°31' E 008°35'0 0.0
2019-Apr-14 17:29N 53°31' E 008°35'0 0.0
2019-Apr-14 16:59N 53°31' E 008°35'0 0.0
2019-Apr-14 16:29N 53°31' E 008°35'0 0.0
2019-Apr-14 15:59N 53°31' E 008°35'0 0.0
2019-Apr-14 15:30N 53°31' E 008°35'0 0.0
2019-Apr-14 15:00N 53°31' E 008°35'0 0.0
2019-Apr-14 14:29N 53°31' E 008°35'0 0.0
2019-Apr-14 13:59N 53°31' E 008°35'0 0.0
2019-Apr-14 13:29N 53°31' E 008°35'0 0.0
2019-Apr-14 12:59N 53°31' E 008°35'0 0.0
2019-Apr-14 12:29N 53°31' E 008°35'0 0.0
2019-Apr-14 11:59N 53°31' E 008°35'0 0.0
2019-Apr-14 11:29N 53°31' E 008°35'0 0.0
2019-Apr-14 10:59N 53°31' E 008°35'0 0.0
2019-Apr-14 10:29N 53°31' E 008°35'0 0.0
2019-Apr-14 09:59N 53°31' E 008°35'0 0.0
2019-Apr-14 09:29N 53°31' E 008°35'0 0.0
2019-Apr-14 08:59N 53°31' E 008°35'0 0.0
2019-Apr-14 08:29N 53°31' E 008°35'0 0.0
2019-Apr-14 07:58N 53°31' E 008°35'0 0.0
2019-Apr-14 07:28N 53°31' E 008°35'0 0.0
2019-Apr-14 06:58N 53°31' E 008°35'0 0.0
2019-Apr-14 06:29N 53°31' E 008°35'0 0.0
2019-Apr-14 06:00N 53°31' E 008°35'0 0.0
2019-Apr-14 05:30N 53°31' E 008°35'0 0.0
2019-Apr-14 05:00N 53°31' E 008°35'0 0.0
2019-Apr-14 04:30N 53°31' E 008°35'0 0.0
2019-Apr-14 04:00N 53°31' E 008°35'0 0.0
2019-Apr-14 03:30N 53°31' E 008°35'0 0.0
2019-Apr-14 03:00N 53°31' E 008°35'0 0.0
2019-Apr-14 02:29N 53°31' E 008°35'0 0.0
2019-Apr-14 01:59N 53°31' E 008°35'0 0.0
2019-Apr-14 01:29N 53°31' E 008°35'0 0.0
2019-Apr-14 00:59N 53°31' E 008°35'0 0.0
2019-Apr-14 00:29N 53°31' E 008°35'0 0.0
2019-Apr-13 23:59N 53°31' E 008°35'0 0.0
2019-Apr-13 23:29N 53°31' E 008°35'0 0.0
2019-Apr-13 22:58N 53°31' E 008°35'0 0.0
2019-Apr-13 22:28N 53°31' E 008°35'0 0.0
2019-Apr-13 21:59N 53°31' E 008°35'0 0.0
2019-Apr-13 21:29N 53°31' E 008°35'0 0.0
2019-Apr-13 20:59N 53°31' E 008°35'0 0.0
2019-Apr-13 20:30N 53°31' E 008°35'0 0.0
2019-Apr-13 19:59N 53°31' E 008°35'0 0.0
2019-Apr-13 19:29N 53°31' E 008°35'0 0.0
2019-Apr-13 18:59N 53°31' E 008°35'0 0.0
2019-Apr-13 18:29N 53°31' E 008°35'0 0.0
2019-Apr-13 17:59N 53°31' E 008°35'0 0.0
2019-Apr-13 17:29N 53°31' E 008°35'0 0.0
2019-Apr-13 16:59N 53°31' E 008°35'0 0.0
2019-Apr-13 16:29N 53°31' E 008°35'0 0.0
2019-Apr-13 15:59N 53°31' E 008°35'0 0.0
2019-Apr-13 15:28N 53°31' E 008°35'0 0.0
2019-Apr-13 14:58N 53°31' E 008°35'0 0.0
2019-Apr-13 14:28N 53°31' E 008°35'0 0.0
2019-Apr-13 13:58N 53°31' E 008°35'0 0.0
2019-Apr-13 13:30N 53°31' E 008°35'0 0.0
2019-Apr-13 12:58N 53°31' E 008°35'0 0.0
2019-Apr-13 12:30N 53°31' E 008°35'0 0.0
2019-Apr-13 11:58N 53°31' E 008°35'0 0.0
2019-Apr-13 11:28N 53°31' E 008°35'0 0.0
2019-Apr-13 11:00N 53°31' E 008°35'0 0.0
2019-Apr-13 10:30N 53°31' E 008°35'0 0.0
2019-Apr-13 10:00N 53°31' E 008°35'0 0.0
2019-Apr-13 09:30N 53°31' E 008°35'0 0.0
2019-Apr-13 09:00N 53°31' E 008°35'0 0.0
2019-Apr-13 08:27N 53°31' E 008°35'0 0.0
2019-Apr-13 08:00N 53°31' E 008°35'0 0.0
2019-Apr-13 07:30N 53°31' E 008°35'0 0.0
2019-Apr-13 06:59N 53°31' E 008°35'0 0.0
2019-Apr-13 06:28N 53°31' E 008°35'0 0.0
2019-Apr-13 05:58N 53°31' E 008°35'0 0.0
2019-Apr-13 05:28N 53°31' E 008°35'0 0.0
2019-Apr-13 05:00N 53°31' E 008°35'0 0.0
2019-Apr-13 04:30N 53°31' E 008°35'0 0.0
2019-Apr-13 04:00N 53°31' E 008°35'0 0.0
2019-Apr-13 03:29N 53°31' E 008°35'0 0.0
2019-Apr-13 02:59N 53°31' E 008°35'0 0.0
2019-Apr-13 02:29N 53°31' E 008°35'0 0.0
2019-Apr-13 01:56N 53°31' E 008°35'0 0.0
2019-Apr-13 01:29N 53°31' E 008°35'0 0.0
2019-Apr-13 00:59N 53°31' E 008°35'0 0.0
2019-Apr-13 00:27N 53°31' E 008°35'0 0.0
2019-Apr-12 23:58N 53°31' E 008°35'0 0.0
2019-Apr-12 23:28N 53°31' E 008°35'0 0.0
2019-Apr-12 22:59N 53°31' E 008°35'0 0.0
2019-Apr-12 22:28N 53°31' E 008°35'0 0.0
2019-Apr-12 22:01N 53°31' E 008°35'0 0.0
2019-Apr-12 21:31N 53°31' E 008°35'0 0.0
2019-Apr-12 21:01N 53°31' E 008°35'0 0.0
2019-Apr-12 20:28N 53°31' E 008°35'0 0.0
2019-Apr-12 20:00N 53°31' E 008°35'0 0.0
2019-Apr-12 19:29N 53°31' E 008°35'0 0.0
2019-Apr-12 19:00N 53°31' E 008°35'0 0.0
2019-Apr-12 18:28N 53°31' E 008°35'0 0.0
2019-Apr-12 18:00N 53°31' E 008°35'0 0.0
2019-Apr-12 17:30N 53°31' E 008°35'0 0.0
2019-Apr-12 17:00N 53°31' E 008°35'0 0.0
2019-Apr-12 16:28N 53°31' E 008°35'0 0.0
2019-Apr-12 15:58N 53°31' E 008°35'0 0.0
2019-Apr-12 15:28N 53°31' E 008°35'0 0.0
2019-Apr-12 14:58N 53°31' E 008°35'0 0.0
2019-Apr-12 14:28N 53°31' E 008°35'0 0.0
2019-Apr-12 13:58N 53°31' E 008°35'0 0.0
2019-Apr-12 13:28N 53°31' E 008°35'0 0.0
2019-Apr-12 12:58N 53°31' E 008°35'0 0.0
2019-Apr-12 12:30N 53°31' E 008°35'0 0.0
2019-Apr-12 12:00N 53°31' E 008°35'0 0.0
2019-Apr-12 11:30N 53°31' E 008°35'0 0.0
2019-Apr-12 10:57N 53°31' E 008°35'0 0.0
2019-Apr-12 10:30N 53°31' E 008°35'0 0.0
2019-Apr-12 09:59N 53°31' E 008°35'0 0.0
2019-Apr-12 09:31N 53°31' E 008°35'0 0.0
2019-Apr-12 09:00N 53°31' E 008°35'0 0.0
2019-Apr-12 08:30N 53°31' E 008°35'0 0.0
2019-Apr-12 08:00N 53°31' E 008°35'0 0.0
2019-Apr-12 07:30N 53°31' E 008°35'0 0.0
2019-Apr-12 06:59N 53°31' E 008°35'0 0.0
2019-Apr-12 06:29N 53°31' E 008°35'0 0.0
2019-Apr-12 05:59N 53°31' E 008°35'0 0.0
2019-Apr-12 05:29N 53°31' E 008°35'0 0.0
2019-Apr-12 04:59N 53°31' E 008°35'0 0.0
2019-Apr-12 04:29N 53°31' E 008°35'0 0.0
2019-Apr-12 03:59N 53°31' E 008°35'0 0.0
2019-Apr-12 03:29N 53°31' E 008°35'0 0.0
2019-Apr-12 02:59N 53°31' E 008°35'0 0.0
2019-Apr-12 02:29N 53°31' E 008°35'0 0.0
2019-Apr-12 01:59N 53°31' E 008°35'0 0.0
2019-Apr-12 01:29N 53°31' E 008°35'0 0.0
2019-Apr-12 00:59N 53°31' E 008°35'0 0.0
2019-Apr-12 00:30N 53°31' E 008°35'0 0.0
2019-Apr-11 23:58N 53°31' E 008°35'0 0.0
2019-Apr-11 23:28N 53°31' E 008°35'0 0.0
2019-Apr-11 22:58N 53°31' E 008°35'0 0.0
2019-Apr-11 22:28N 53°31' E 008°35'0 0.0
2019-Apr-11 21:58N 53°31' E 008°35'0 0.0
2019-Apr-11 21:25N 53°31' E 008°35'0 0.0
2019-Apr-11 21:00N 53°31' E 008°35'0 0.0
2019-Apr-11 20:30N 53°31' E 008°35'0 0.0
2019-Apr-11 19:59N 53°31' E 008°35'0 0.0
2019-Apr-11 19:29N 53°31' E 008°35'0 0.0
2019-Apr-11 18:59N 53°31' E 008°35'0 0.0
2019-Apr-11 18:29N 53°31' E 008°35'0 0.0
2019-Apr-11 17:59N 53°31' E 008°35'0 0.0
2019-Apr-11 17:29N 53°31' E 008°35'0 0.0
2019-Apr-11 16:56N 53°31' E 008°35'0 0.0
2019-Apr-11 16:28N 53°31' E 008°35'0 0.0
2019-Apr-11 15:58N 53°31' E 008°35'0 0.0
2019-Apr-11 15:25N 53°31' E 008°35'0 0.0
2019-Apr-11 14:58N 53°31' E 008°35'0 0.0
2019-Apr-11 14:28N 53°31' E 008°35'0 0.0
2019-Apr-11 13:58N 53°31' E 008°35'0 0.0
2019-Apr-11 13:28N 53°31' E 008°35'0 0.0
2019-Apr-11 12:58N 53°31' E 008°35'0 0.0
2019-Apr-11 12:25N 53°31' E 008°35'0 0.0
2019-Apr-11 11:58N 53°31' E 008°35'0 0.0
2019-Apr-11 11:28N 53°31' E 008°35'0 0.0
2019-Apr-11 10:58N 53°31' E 008°35'0 0.0
2019-Apr-11 10:30N 53°31' E 008°35'0 0.0
2019-Apr-11 10:00N 53°31' E 008°35'0 0.0
2019-Apr-11 09:27N 53°31' E 008°35'0 0.0
2019-Apr-11 09:00N 53°31' E 008°35'0 0.0
2019-Apr-11 08:30N 53°31' E 008°35'0 0.0
2019-Apr-11 08:00N 53°31' E 008°35'0 0.0
2019-Apr-11 07:29N 53°31' E 008°35'0 0.0
2019-Apr-11 06:59N 53°31' E 008°35'0 0.0
2019-Apr-11 06:26N 53°31' E 008°35'0 0.0
2019-Apr-11 05:59N 53°31' E 008°35'0 0.0
2019-Apr-11 05:29N 53°31' E 008°35'0 0.0
2019-Apr-11 05:00N 53°31' E 008°35'0 0.0
2019-Apr-11 04:28N 53°31' E 008°35'0 0.0
2019-Apr-11 03:58N 53°31' E 008°35'0 0.0
2019-Apr-11 03:28N 53°31' E 008°35'0 0.0
2019-Apr-11 02:58N 53°31' E 008°35'0 0.0
2019-Apr-11 02:28N 53°31' E 008°35'0 0.0
2019-Apr-11 01:58N 53°31' E 008°35'0 0.0
2019-Apr-11 01:29N 53°31' E 008°35'0 0.0
2019-Apr-11 00:58N 53°31' E 008°35'0 0.0
2019-Apr-11 00:28N 53°31' E 008°35'0 0.0
2019-Apr-10 23:59N 53°31' E 008°35'0 0.0
2019-Apr-10 23:29N 53°31' E 008°35'0 0.0
2019-Apr-10 22:59N 53°31' E 008°35'0 0.0
2019-Apr-10 22:28N 53°31' E 008°35'0 0.0
2019-Apr-10 21:53N 53°31' E 008°35'0 0.0
2019-Apr-10 21:28N 53°31' E 008°35'0 0.0
2019-Apr-10 20:58N 53°31' E 008°35'0 0.0
2019-Apr-10 20:29N 53°31' E 008°35'0 0.0
2019-Apr-10 19:58N 53°31' E 008°35'0 0.0
2019-Apr-10 19:29N 53°31' E 008°35'0 0.0
2019-Apr-10 18:58N 53°31' E 008°35'0 0.0
2019-Apr-10 18:28N 53°31' E 008°35'0 0.0
2019-Apr-10 17:58N 53°31' E 008°35'0 0.0
2019-Apr-10 17:28N 53°31' E 008°35'0 0.0
2019-Apr-10 16:59N 53°31' E 008°35'0 0.0
2019-Apr-10 16:29N 53°31' E 008°35'0 0.0
2019-Apr-10 15:58N 53°31' E 008°35'0 0.0
2019-Apr-10 15:29N 53°31' E 008°35'0 0.0
2019-Apr-10 15:00N 53°31' E 008°35'0 0.0
2019-Apr-10 14:30N 53°31' E 008°35'0 0.0
2019-Apr-10 14:00N 53°31' E 008°35'0 0.0
2019-Apr-10 13:30N 53°31' E 008°35'0 0.0
2019-Apr-10 13:00N 53°31' E 008°35'0 0.0
2019-Apr-10 12:30N 53°31' E 008°35'0 0.0
2019-Apr-10 12:00N 53°31' E 008°35'1223.9
2019-Apr-10 12:00N 53°30' E 008°36'1 3.0 050 / 61020.0 7.1-6.1 9.8
2019-Apr-10 11:30N 53°31' E 008°35'0 0.0
2019-Apr-10 11:00N 53°31' E 008°35'1223.9
2019-Apr-10 11:00N 53°30' E 008°36'1 3.0 060 / 81020.1 6.1-5.0 9.8
2019-Apr-10 10:30N 53°31' E 008°35'0 0.0
2019-Apr-10 10:00N 53°31' E 008°35'1206.7
2019-Apr-10 10:00N 53°30' E 008°36'1 3.0 050 / 81020.3 5.3-4.2 9.8
2019-Apr-10 09:30N 53°31' E 008°35'0 0.0
2019-Apr-10 09:00N 53°31' E 008°35'1101.4
2019-Apr-10 09:00N 53°30' E 008°36'1 3.1 070 / 121020.3 4.8-4.6 9.8
2019-Apr-10 08:30N 53°31' E 008°35'0 0.0
2019-Apr-10 08:00N 53°31' E 008°35'1199.0
2019-Apr-10 08:00N 53°30' E 008°36'1 3.0 070 / 81020.1 3.9-3.0 9.8
2019-Apr-10 07:30N 53°31' E 008°35'1 2.9
2019-Apr-10 07:00N 53°30' E 008°36'122.3 050 / 61020.0 2.4-3.1 9.8
2019-Apr-10 06:55N 53°31' E 008°35'0 0.0
2019-Apr-10 06:30N 53°31' E 008°35'0 0.0
2019-Apr-10 06:00N 53°31' E 008°35'1125.0
2019-Apr-10 06:00N 53°30' E 008°36'1 3.1 060 / 61019.7 1.3-3.4 9.8
2019-Apr-10 05:30N 53°31' E 008°35'0 0.0
2019-Apr-10 05:00N 53°31' E 008°35'1145.3
2019-Apr-10 05:00N 53°30' E 008°36'1 3.1 060 / 61019.3 0.8-3.6 9.9
2019-Apr-10 04:30N 53°31' E 008°35'0 0.0
2019-Apr-10 04:00N 53°31' E 008°35'197.7
2019-Apr-10 04:00N 53°30' E 008°36'1 2.7 040 / 41019.1 0.7-3.7 9.9
2019-Apr-10 03:26N 53°31' E 008°35'1 3.4
2019-Apr-10 03:00N 53°30' E 008°36'1125.0 060 / 41019.0 0.7-4.1 9.9
2019-Apr-10 02:59N 53°31' E 008°35'0 0.0
2019-Apr-10 02:26N 53°31' E 008°35'1 3.4
2019-Apr-10 02:00N 53°30' E 008°36'1127.9 050 / 61018.9 1.4-4.310.0
2019-Apr-10 01:59N 53°31' E 008°35'0 0.0
2019-Apr-10 01:29N 53°31' E 008°35'1 3.1
2019-Apr-10 01:00N 53°30' E 008°36'1125.0 060 / 61019.0 1.1-4.110.1
2019-Apr-10 00:59N 53°31' E 008°35'0 0.0
2019-Apr-10 00:30N 53°31' E 008°35'0 0.0
2019-Apr-10 00:00N 53°31' E 008°35'1167.9
2019-Apr-10 00:00N 53°30' E 008°36'1 2.9 070 / 61018.7 1.5-4.110.2
2019-Apr-09 23:28N 53°31' E 008°35'1 3.1
2019-Apr-09 23:00N 53°30' E 008°36'1383.7 070 / 81018.7 2.1-4.010.2
2019-Apr-09 22:59N 53°31' E 008°35'0 0.0
2019-Apr-09 22:28N 53°31' E 008°35'1 3.1
2019-Apr-09 22:00N 53°30' E 008°36'180.2 070 / 81018.8 2.7-4.010.2
2019-Apr-09 21:58N 53°31' E 008°35'0 0.0
2019-Apr-09 21:30N 53°31' E 008°35'0 0.0
2019-Apr-09 21:00N 53°31' E 008°35'1145.3
2019-Apr-09 21:00N 53°30' E 008°36'1 3.1 060 / 81018.6 3.6-4.210.1
2019-Apr-09 20:30N 53°31' E 008°35'0 0.0
2019-Apr-09 20:00N 53°31' E 008°35'1488.6
2019-Apr-09 20:00N 53°30' E 008°36'1 3.0 060 / 81018.3 4.8-4.210.0
2019-Apr-09 19:29N 53°31' E 008°35'1 3.0
2019-Apr-09 19:00N 53°30' E 008°36'196.0 060 / 81017.5 6.2-3.710.0
2019-Apr-09 18:59N 53°31' E 008°35'0 0.0
2019-Apr-09 18:26N 53°31' E 008°35'1 3.4
2019-Apr-09 18:00N 53°30' E 008°36'186.7 060 / 81016.7 8.2-3.810.0
2019-Apr-09 17:58N 53°31' E 008°35'0 0.0
2019-Apr-09 17:30N 53°31' E 008°35'1 3.0
2019-Apr-09 17:00N 53°30' E 008°36'199.5 070 / 101016.4 9.6-1.710.0
2019-Apr-09 16:59N 53°31' E 008°35'0 0.0
2019-Apr-09 16:30N 53°31' E 008°35'0 0.0
2019-Apr-09 16:00N 53°31' E 008°35'1137.8
2019-Apr-09 16:00N 53°30' E 008°36'1 3.0 060 / 81016.5 9.8-0.610.0
2019-Apr-09 15:29N 53°31' E 008°35'1 3.0
2019-Apr-09 15:00N 53°30' E 008°36'1137.8 070 / 121016.6 9.9-1.310.0
2019-Apr-09 14:59N 53°31' E 008°35'0 0.0
2019-Apr-09 14:29N 53°31' E 008°35'1 3.1
2019-Apr-09 14:00N 53°30' E 008°36'116.8 070 / 81016.8 9.9-1.210.0
2019-Apr-09 13:54N 53°31' E 008°35'0 0.0
2019-Apr-09 13:30N 53°31' E 008°35'0 0.0
2019-Apr-09 13:00N 53°31' E 008°35'1131.1
2019-Apr-09 13:00N 53°30' E 008°36'1 3.1 060 / 101016.9 9.6 0.3 9.7
2019-Apr-09 12:30N 53°31' E 008°35'0 0.0
2019-Apr-09 12:00N 53°31' E 008°35'1131.1
2019-Apr-09 12:00N 53°30' E 008°36'1 3.1 070 / 101017.0 9.6 0.3 9.7
2019-Apr-09 11:30N 53°31' E 008°35'0 0.0
2019-Apr-09 11:00N 53°31' E 008°35'1134.4
2019-Apr-09 11:00N 53°30' E 008°36'1 3.1 080 / 121017.1 9.4 0.8 9.9
2019-Apr-09 10:30N 53°31' E 008°35'0 0.0
2019-Apr-09 10:00N 53°31' E 008°35'1101.4
2019-Apr-09 10:00N 53°30' E 008°36'1 3.1 070 / 81017.4 8.5 1.010.0
2019-Apr-09 09:30N 53°31' E 008°35'1 2.9
2019-Apr-09 09:00N 53°30' E 008°36'147.1 070 / 101017.6 7.4 1.110.0
2019-Apr-09 08:58N 53°31' E 008°35'0 0.0
2019-Apr-09 08:30N 53°31' E 008°35'1 2.9
2019-Apr-09 08:00N 53°30' E 008°36'1214.9 070 / 81017.4 6.2 1.410.1
2019-Apr-09 07:59N 53°31' E 008°35'0 0.0
2019-Apr-09 07:29N 53°31' E 008°35'0 0.0
2019-Apr-09 07:00N 53°31' E 008°35'1112.0
2019-Apr-09 07:00N 53°30' E 008°36'1 2.7 060 / 81017.4 4.1 1.610.0
2019-Apr-09 06:26N 53°31' E 008°35'1 3.4
2019-Apr-09 06:00N 53°30' E 008°36'1199.0 060 / 61017.3 3.0 1.110.1
2019-Apr-09 05:59N 53°31' E 008°35'0 0.0
2019-Apr-09 05:29N 53°31' E 008°35'1 3.0
2019-Apr-09 05:00N 53°30' E 008°36'1206.7 060 / 61017.0 2.9 1.110.1
2019-Apr-09 04:59N 53°31' E 008°35'0 0.0
2019-Apr-09 04:29N 53°31' E 008°35'1 3.0
2019-Apr-09 04:00N 53°30' E 008°36'1199.0 060 / 61016.7 3.1 0.710.2
2019-Apr-09 03:59N 53°31' E 008°35'0 0.0
2019-Apr-09 03:29N 53°31' E 008°35'1 3.0
2019-Apr-09 03:00N 53°30' E 008°36'1199.1 060 / 61016.5 3.3 0.310.2
2019-Apr-09 02:59N 53°31' E 008°35'0 0.0
2019-Apr-09 02:29N 53°31' E 008°35'1 3.0
2019-Apr-09 02:00N 53°30' E 008°36'199.5 060 / 61016.5 3.5 0.110.3
2019-Apr-09 01:59N 53°31' E 008°35'0 0.0
2019-Apr-09 01:29N 53°31' E 008°35'0 0.0
2019-Apr-09 01:00N 53°31' E 008°35'1767.8
2019-Apr-09 01:00N 53°30' E 008°36'1 2.8 060 / 61016.0 4.0 0.110.3
2019-Apr-09 00:28N 53°31' E 008°35'1 3.2
2019-Apr-09 00:00N 53°30' E 008°36'154.8 060 / 81015.9 4.6-0.110.4
2019-Apr-08 23:58N 53°31' E 008°35'0 0.0
2019-Apr-08 23:28N 53°31' E 008°35'1 3.2
2019-Apr-08 23:00N 53°30' E 008°36'156.6 060 / 81015.5 5.3-0.310.4
2019-Apr-08 22:58N 53°31' E 008°35'0 0.0
2019-Apr-08 22:30N 53°31' E 008°35'0 0.0
2019-Apr-08 22:00N 53°31' E 008°35'1112.0
2019-Apr-08 22:00N 53°30' E 008°36'1 3.1 060 / 81015.1 6.3-0.510.7
2019-Apr-08 21:30N 53°31' E 008°35'0 0.0
2019-Apr-08 21:00N 53°31' E 008°35'1112.0
2019-Apr-08 21:00N 53°30' E 008°36'1 3.1 060 / 81014.9 7.1-0.610.7
2019-Apr-08 20:30N 53°31' E 008°35'0 0.0
2019-Apr-08 20:00N 53°31' E 008°35'1114.3
2019-Apr-08 20:00N 53°30' E 008°36'1 3.1 060 / 101014.5 8.1 0.210.8
2019-Apr-08 19:30N 53°31' E 008°35'0 0.0
2019-Apr-08 19:00N 53°31' E 008°35'1112.0
2019-Apr-08 19:00N 53°30' E 008°36'1 3.0 060 / 101014.0 9.3 0.910.8
2019-Apr-08 18:29N 53°31' E 008°35'1 3.0
2019-Apr-08 18:00N 53°30' E 008°36'1597.0 060 / 101013.3 11.2 2.210.8
2019-Apr-08 17:59N 53°31' E 008°35'0 0.0
2019-Apr-08 17:28N 53°31' E 008°35'0 0.0
2019-Apr-08 17:01N 53°31' E 008°35'188.1
2019-Apr-08 17:00N 53°30' E 008°36'1 3.1 060 / 81013.0 12.7 4.810.6
2019-Apr-08 16:30N 53°31' E 008°35'0 0.0
2019-Apr-08 16:00N 53°31' E 008°35'1244.3
2019-Apr-08 16:00N 53°30' E 008°36'1 3.0 080 / 101012.6 14.0 4.410.4
2019-Apr-08 15:30N 53°31' E 008°35'0 0.0
2019-Apr-08 15:00N 53°31' E 008°35'1245.1
2019-Apr-08 15:00N 53°30' E 008°36'1 3.0 060 / 81012.6 14.1 4.910.0
2019-Apr-08 14:30N 53°31' E 008°35'0 0.0
2019-Apr-08 14:00N 53°31' E 008°35'1244.3
2019-Apr-08 14:00N 53°30' E 008°36'1 3.0 050 / 81012.4 14.6 5.310.3
2019-Apr-08 13:30N 53°31' E 008°35'0 0.0
2019-Apr-08 13:00N 53°31' E 008°35'1298.6
2019-Apr-08 13:00N 53°30' E 008°36'1 2.7 050 / 81012.4 14.6 6.2 9.9
2019-Apr-08 12:26N 53°31' E 008°35'0 0.0
2019-Apr-08 12:01N 53°31' E 008°35'186.7
2019-Apr-08 12:00N 53°30' E 008°36'1 3.1 070 / 81012.1 15.5 7.2 9.8
2019-Apr-08 11:30N 53°31' E 008°35'0 0.0
2019-Apr-08 11:01N 53°31' E 008°35'188.1
2019-Apr-08 11:00N 53°30' E 008°36'1 2.6 070 / 101012.3 13.8 5.8 9.7
2019-Apr-08 10:25N 53°31' E 008°35'1 3.5
2019-Apr-08 10:00N 53°30' E 008°36'   070 / 81012.1 13.5 6.5 9.7
Track history (hours):
 
Tides and Currents Weather Stations Pressure Air Temp Water Temp Dewpoint Dewpoint Depression Visibility Wind Speed Wind Dir Waves Ship Positions

Oceanographic research ship Wega (Germany)

Detailed information on ship capabilities available from University of Delaware's Ocean Information Center.

Last reported at 2019-Apr-18 10:00 UTC. Time now 2019-Apr-18 10:39 UTC.
Position N 53°54' E 007°36'.

Length 52.1 m; beam 11.4 m; draft 3.5 m.

Type: Law enforcement. MMSI: 211205970.

Wind from 070 at 16 knots

Barometer 1031.2 mb
Air temperature 8.1 ° C
Dewpoint 5.3 ° C
Water temperature 7.9 ° C

Date/timePositionNaut miles runAvg speedWind from/ knotsBaromVisibWave heightAir tempDewpointWater temp
2019-Apr-18 10:00N 53°54' E 007°36'1 3.8 070 / 161031.2 8.1 5.3 7.9
2019-Apr-18 09:50N 53°55' E 007°36'4 4.3
2019-Apr-18 09:00N 53°54' E 007°30'114.1 070 / 161031.0 7.9 4.8 7.9
2019-Apr-18 08:57N 53°54' E 007°31'0 0.5
2019-Apr-18 08:22N 53°54' E 007°30'3 8.8
2019-Apr-18 08:00N 53°54' E 007°36'1 2.1 080 / 161031.1 9.2 4.9 7.8
2019-Apr-18 07:45N 53°55' E 007°36'3 8.1
2019-Apr-18 07:26N 53°55' E 007°40'3 8.1
2019-Apr-18 07:00N 53°56' E 007°46'3225.6
2019-Apr-18 07:00N 53°54' E 007°42'1 2.4 080 / 141030.8 8.1 4.2 7.7
2019-Apr-18 06:29N 53°55' E 007°41'2 4.8
2019-Apr-18 06:00N 53°53' E 007°39'5409.1
2019-Apr-18 06:00N 53°48' E 007°42'3 3.9 080 / 161030.4 8.1 4.4 7.9
2019-Apr-18 05:12N 53°51' E 007°40'315.6
2019-Apr-18 05:00N 53°48' E 007°42'31403.4 080 / 161029.8 8.2 4.4 7.9
2019-Apr-18 04:59N 53°51' E 007°40'0 0.0
2019-Apr-18 04:02N 53°51' E 007°40'365.5
2019-Apr-18 04:00N 53°48' E 007°42'3 6.9 080 / 161029.5 8.6 4.6 7.9
2019-Apr-18 03:32N 53°51' E 007°40'3 5.7
2019-Apr-18 03:00N 53°48' E 007°42'0 0.0 090 / 121029.5 8.8 5.0 7.8
2019-Apr-18 02:00N 53°48' E 007°42'0 0.0 090 / 161029.1 9.1 5.1 7.8
2019-Apr-18 01:00N 53°48' E 007°42'0 0.0 080 / 171028.8 8.8 5.6 7.8
2019-Apr-18 00:00N 53°48' E 007°42'327.1 080 / 171028.7 8.9 5.9 7.8
2019-Apr-17 23:53N 53°51' E 007°40'3 3.5
2019-Apr-17 23:00N 53°48' E 007°42'0 0.0 070 / 171028.3 9.0 5.9 7.7
2019-Apr-17 22:00N 53°48' E 007°42'0 0.0 070 / 171027.9 9.3 6.1 7.8
2019-Apr-17 21:00N 53°48' E 007°42'0 0.0 080 / 171027.5 9.4 6.1 7.8
2019-Apr-17 20:00N 53°48' E 007°42'0 0.0 070 / 161027.2 9.6 5.8 7.8
2019-Apr-17 18:00N 53°48' E 007°42'7 7.0 060 / 171026.2 10.8 4.6 7.9
2019-Apr-17 17:00N 53°54' E 007°36'0 0.0 060 / 191026.1 10.6 4.1 7.9
2019-Apr-17 16:00N 53°54' E 007°36'4 3.5 060 / 171026.5 10.6 3.8 8.1
2019-Apr-17 15:00N 53°54' E 007°42'7 7.1 060 / 171026.4 10.5 4.2 8.0
2019-Apr-17 14:00N 53°54' E 007°30'4 3.5 070 / 211026.4 10.6 3.2 8.1
2019-Apr-17 13:00N 53°54' E 007°36'11 6.6 080 / 191026.6 11.8 4.1 8.0
2019-Apr-17 11:18N 53°52' E 007°55'412.7
2019-Apr-17 10:58N 53°51' E 008°02'611.9
2019-Apr-17 10:29N 53°47' E 008°09'511.3
2019-Apr-17 10:00N 53°44' E 008°16'510.5
2019-Apr-17 09:30N 53°40' E 008°23'5 9.6
2019-Apr-17 09:00N 53°37' E 008°29'5 9.3
2019-Apr-17 08:30N 53°33' E 008°33'2 3.5
2019-Apr-17 08:00N 53°32' E 008°35'1 1.0
2019-Apr-17 07:28N 53°31' E 008°35'0 0.0
2019-Apr-17 06:58N 53°31' E 008°35'0 0.0
2019-Apr-17 06:29N 53°31' E 008°35'0 0.0
2019-Apr-17 06:00N 53°31' E 008°35'0 0.0
2019-Apr-17 05:28N 53°31' E 008°35'0 0.0
2019-Apr-17 05:00N 53°31' E 008°35'0 0.0
2019-Apr-17 04:30N 53°31' E 008°35'0 0.0
2019-Apr-17 04:00N 53°31' E 008°35'0 0.0
2019-Apr-17 03:29N 53°31' E 008°35'0 0.0
2019-Apr-17 02:59N 53°31' E 008°35'0 0.0
2019-Apr-17 02:29N 53°31' E 008°35'0 0.0
2019-Apr-17 01:59N 53°31' E 008°35'0 0.0
2019-Apr-17 01:30N 53°31' E 008°35'0 0.0
2019-Apr-17 00:58N 53°31' E 008°35'0 0.0
2019-Apr-17 00:28N 53°31' E 008°35'0 0.0
2019-Apr-16 23:59N 53°31' E 008°35'0 0.0
2019-Apr-16 23:29N 53°31' E 008°35'0 0.0
2019-Apr-16 22:59N 53°31' E 008°35'0 0.0
2019-Apr-16 22:29N 53°31' E 008°35'0 0.0
2019-Apr-16 21:59N 53°31' E 008°35'0 0.0
2019-Apr-16 21:29N 53°31' E 008°35'0 0.0
2019-Apr-16 21:00N 53°31' E 008°35'0 0.0
2019-Apr-16 20:30N 53°31' E 008°35'0 0.0
2019-Apr-16 20:00N 53°31' E 008°35'0 0.0
2019-Apr-16 19:30N 53°31' E 008°35'0 0.0
2019-Apr-16 18:57N 53°31' E 008°35'0 0.0
2019-Apr-16 18:30N 53°31' E 008°35'0 0.0
2019-Apr-16 18:00N 53°31' E 008°35'0 0.0
2019-Apr-16 17:30N 53°31' E 008°35'0 0.0
2019-Apr-16 17:00N 53°31' E 008°35'0 0.0
2019-Apr-16 16:31N 53°31' E 008°35'0 0.0
2019-Apr-16 16:00N 53°31' E 008°35'0 0.0
2019-Apr-16 15:30N 53°31' E 008°35'0 0.0
2019-Apr-16 15:00N 53°31' E 008°35'0 0.0
2019-Apr-16 14:29N 53°31' E 008°35'0 0.0
2019-Apr-16 14:00N 53°31' E 008°35'0 0.0
2019-Apr-16 13:30N 53°31' E 008°35'0 0.0
2019-Apr-16 13:00N 53°31' E 008°35'0 0.0
2019-Apr-16 12:30N 53°31' E 008°35'0 0.0
2019-Apr-16 12:00N 53°31' E 008°35'0 0.0
2019-Apr-16 11:27N 53°31' E 008°35'0 0.0
2019-Apr-16 11:00N 53°31' E 008°35'0 0.0
2019-Apr-16 10:30N 53°31' E 008°35'0 0.0
2019-Apr-16 10:00N 53°31' E 008°35'0 0.0
2019-Apr-16 09:30N 53°31' E 008°35'0 0.0
2019-Apr-16 09:00N 53°31' E 008°35'0 0.0
2019-Apr-16 08:28N 53°31' E 008°35'0 0.0
2019-Apr-16 08:00N 53°31' E 008°35'0 0.0
2019-Apr-16 07:30N 53°31' E 008°35'0 0.0
2019-Apr-16 06:59N 53°31' E 008°35'0 0.0
2019-Apr-16 06:30N 53°31' E 008°35'0 0.0
2019-Apr-16 06:00N 53°31' E 008°35'0 0.0
2019-Apr-16 05:30N 53°31' E 008°35'0 0.0
2019-Apr-16 05:00N 53°31' E 008°35'0 0.0
2019-Apr-16 04:27N 53°31' E 008°35'0 0.0
2019-Apr-16 04:00N 53°31' E 008°35'0 0.0
2019-Apr-16 03:29N 53°31' E 008°35'0 0.0
2019-Apr-16 02:59N 53°31' E 008°35'0 0.0
2019-Apr-16 02:29N 53°31' E 008°35'0 0.0
2019-Apr-16 01:59N 53°31' E 008°35'0 0.0
2019-Apr-16 01:26N 53°31' E 008°35'0 0.0
2019-Apr-16 00:59N 53°31' E 008°35'0 0.0
2019-Apr-16 00:28N 53°31' E 008°35'0 0.0
2019-Apr-15 23:58N 53°31' E 008°35'0 0.0
2019-Apr-15 23:28N 53°31' E 008°35'0 0.0
2019-Apr-15 22:58N 53°31' E 008°35'0 0.0
2019-Apr-15 22:28N 53°31' E 008°35'0 0.0
2019-Apr-15 21:59N 53°31' E 008°35'0 0.0
2019-Apr-15 21:28N 53°31' E 008°35'0 0.0
2019-Apr-15 20:58N 53°31' E 008°35'0 0.0
2019-Apr-15 20:28N 53°31' E 008°35'0 0.0
2019-Apr-15 19:58N 53°31' E 008°35'0 0.0
2019-Apr-15 19:28N 53°31' E 008°35'0 0.0
2019-Apr-15 19:00N 53°31' E 008°35'0 0.0
2019-Apr-15 18:28N 53°31' E 008°35'0 0.0
2019-Apr-15 17:58N 53°31' E 008°35'0 0.0
2019-Apr-15 17:28N 53°31' E 008°35'0 0.0
2019-Apr-15 16:58N 53°31' E 008°35'0 0.0
2019-Apr-15 16:28N 53°31' E 008°35'0 0.0
2019-Apr-15 15:58N 53°31' E 008°35'0 0.0
2019-Apr-15 15:28N 53°31' E 008°35'0 0.0
2019-Apr-15 14:58N 53°31' E 008°35'0 0.0
2019-Apr-15 14:28N 53°31' E 008°35'0 0.0
2019-Apr-15 13:58N 53°31' E 008°35'0 0.0
2019-Apr-15 13:28N 53°31' E 008°35'0 0.0
2019-Apr-15 12:57N 53°31' E 008°35'0 0.0
2019-Apr-15 12:30N 53°31' E 008°35'0 0.0
2019-Apr-15 12:00N 53°31' E 008°35'0 0.0
2019-Apr-15 11:30N 53°31' E 008°35'0 0.0
2019-Apr-15 10:59N 53°31' E 008°35'0 0.0
2019-Apr-15 10:30N 53°31' E 008°35'0 0.0
2019-Apr-15 09:58N 53°31' E 008°35'0 0.0
2019-Apr-15 09:29N 53°31' E 008°35'0 0.0
2019-Apr-15 09:00N 53°31' E 008°35'0 0.0
2019-Apr-15 08:28N 53°31' E 008°35'0 0.0
2019-Apr-15 07:58N 53°31' E 008°35'0 0.0
2019-Apr-15 07:30N 53°31' E 008°35'0 0.0
2019-Apr-15 07:00N 53°31' E 008°35'0 0.0
2019-Apr-15 06:28N 53°31' E 008°35'0 0.0
2019-Apr-15 05:58N 53°31' E 008°35'0 0.0
2019-Apr-15 05:28N 53°31' E 008°35'0 0.0
2019-Apr-15 04:58N 53°31' E 008°35'0 0.0
2019-Apr-15 04:28N 53°31' E 008°35'0 0.0
2019-Apr-15 04:00N 53°31' E 008°35'0 0.0
2019-Apr-15 03:30N 53°31' E 008°35'0 0.0
2019-Apr-15 03:00N 53°31' E 008°35'0 0.0
2019-Apr-15 02:29N 53°31' E 008°35'0 0.0
2019-Apr-15 02:00N 53°31' E 008°35'0 0.0
2019-Apr-15 01:28N 53°31' E 008°35'0 0.0
2019-Apr-15 00:58N 53°31' E 008°35'0 0.0
2019-Apr-15 00:28N 53°31' E 008°35'0 0.0
2019-Apr-14 23:58N 53°31' E 008°35'0 0.0
2019-Apr-14 23:28N 53°31' E 008°35'0 0.0
2019-Apr-14 22:58N 53°31' E 008°35'0 0.0
2019-Apr-14 22:28N 53°31' E 008°35'0 0.0
2019-Apr-14 21:58N 53°31' E 008°35'0 0.0
2019-Apr-14 21:28N 53°31' E 008°35'0 0.0
2019-Apr-14 20:58N 53°31' E 008°35'0 0.0
2019-Apr-14 20:28N 53°31' E 008°35'0 0.0
2019-Apr-14 19:58N 53°31' E 008°35'0 0.0
2019-Apr-14 19:28N 53°31' E 008°35'0 0.0
2019-Apr-14 18:58N 53°31' E 008°35'0 0.0
2019-Apr-14 18:27N 53°31' E 008°35'0 0.0
2019-Apr-14 18:00N 53°31' E 008°35'0 0.0
2019-Apr-14 17:29N 53°31' E 008°35'0 0.0
2019-Apr-14 16:59N 53°31' E 008°35'0 0.0
2019-Apr-14 16:29N 53°31' E 008°35'0 0.0
2019-Apr-14 15:59N 53°31' E 008°35'0 0.0
2019-Apr-14 15:30N 53°31' E 008°35'0 0.0
2019-Apr-14 15:00N 53°31' E 008°35'0 0.0
2019-Apr-14 14:29N 53°31' E 008°35'0 0.0
2019-Apr-14 13:59N 53°31' E 008°35'0 0.0
2019-Apr-14 13:29N 53°31' E 008°35'0 0.0
2019-Apr-14 12:59N 53°31' E 008°35'0 0.0
2019-Apr-14 12:29N 53°31' E 008°35'0 0.0
2019-Apr-14 11:59N 53°31' E 008°35'0 0.0
2019-Apr-14 11:29N 53°31' E 008°35'0 0.0
2019-Apr-14 10:59N 53°31' E 008°35'0 0.0
2019-Apr-14 10:29N 53°31' E 008°35'0 0.0
2019-Apr-14 09:59N 53°31' E 008°35'0 0.0
2019-Apr-14 09:29N 53°31' E 008°35'0 0.0
2019-Apr-14 08:59N 53°31' E 008°35'0 0.0
2019-Apr-14 08:29N 53°31' E 008°35'0 0.0
2019-Apr-14 07:58N 53°31' E 008°35'0 0.0
2019-Apr-14 07:28N 53°31' E 008°35'0 0.0
2019-Apr-14 06:58N 53°31' E 008°35'0 0.0
2019-Apr-14 06:29N 53°31' E 008°35'0 0.0
2019-Apr-14 06:00N 53°31' E 008°35'0 0.0
2019-Apr-14 05:30N 53°31' E 008°35'0 0.0
2019-Apr-14 05:00N 53°31' E 008°35'0 0.0
2019-Apr-14 04:30N 53°31' E 008°35'0 0.0
2019-Apr-14 04:00N 53°31' E 008°35'0 0.0
2019-Apr-14 03:30N 53°31' E 008°35'0 0.0
2019-Apr-14 03:00N 53°31' E 008°35'0 0.0
2019-Apr-14 02:29N 53°31' E 008°35'0 0.0
2019-Apr-14 01:59N 53°31' E 008°35'0 0.0
2019-Apr-14 01:29N 53°31' E 008°35'0 0.0
2019-Apr-14 00:59N 53°31' E 008°35'0 0.0
2019-Apr-14 00:29N 53°31' E 008°35'0 0.0
2019-Apr-13 23:59N 53°31' E 008°35'0 0.0
2019-Apr-13 23:29N 53°31' E 008°35'0 0.0
2019-Apr-13 22:58N 53°31' E 008°35'0 0.0
2019-Apr-13 22:28N 53°31' E 008°35'0 0.0
2019-Apr-13 21:59N 53°31' E 008°35'0 0.0
2019-Apr-13 21:29N 53°31' E 008°35'0 0.0
2019-Apr-13 20:59N 53°31' E 008°35'0 0.0
2019-Apr-13 20:30N 53°31' E 008°35'0 0.0
2019-Apr-13 19:59N 53°31' E 008°35'0 0.0
2019-Apr-13 19:29N 53°31' E 008°35'0 0.0
2019-Apr-13 18:59N 53°31' E 008°35'0 0.0
2019-Apr-13 18:29N 53°31' E 008°35'0 0.0
2019-Apr-13 17:59N 53°31' E 008°35'0 0.0
2019-Apr-13 17:29N 53°31' E 008°35'0 0.0
2019-Apr-13 16:59N 53°31' E 008°35'0 0.0
2019-Apr-13 16:29N 53°31' E 008°35'0 0.0
2019-Apr-13 15:59N 53°31' E 008°35'0 0.0
2019-Apr-13 15:28N 53°31' E 008°35'0 0.0
2019-Apr-13 14:58N 53°31' E 008°35'0 0.0
2019-Apr-13 14:28N 53°31' E 008°35'0 0.0
2019-Apr-13 13:58N 53°31' E 008°35'0 0.0
2019-Apr-13 13:30N 53°31' E 008°35'0 0.0
2019-Apr-13 12:58N 53°31' E 008°35'0 0.0
2019-Apr-13 12:30N 53°31' E 008°35'0 0.0
2019-Apr-13 11:58N 53°31' E 008°35'0 0.0
2019-Apr-13 11:28N 53°31' E 008°35'0 0.0
2019-Apr-13 11:00N 53°31' E 008°35'0 0.0
2019-Apr-13 10:30N 53°31' E 008°35'0 0.0
2019-Apr-13 10:00N 53°31' E 008°35'0 0.0
2019-Apr-13 09:30N 53°31' E 008°35'0 0.0
2019-Apr-13 09:00N 53°31' E 008°35'0 0.0
2019-Apr-13 08:27N 53°31' E 008°35'0 0.0
2019-Apr-13 08:00N 53°31' E 008°35'0 0.0
2019-Apr-13 07:30N 53°31' E 008°35'0 0.0
2019-Apr-13 06:59N 53°31' E 008°35'0 0.0
2019-Apr-13 06:28N 53°31' E 008°35'0 0.0
2019-Apr-13 05:58N 53°31' E 008°35'0 0.0
2019-Apr-13 05:28N 53°31' E 008°35'0 0.0
2019-Apr-13 05:00N 53°31' E 008°35'0 0.0
2019-Apr-13 04:30N 53°31' E 008°35'0 0.0
2019-Apr-13 04:00N 53°31' E 008°35'0 0.0
2019-Apr-13 03:29N 53°31' E 008°35'0 0.0
2019-Apr-13 02:59N 53°31' E 008°35'0 0.0
2019-Apr-13 02:29N 53°31' E 008°35'0 0.0
2019-Apr-13 01:56N 53°31' E 008°35'0 0.0
2019-Apr-13 01:29N 53°31' E 008°35'0 0.0
2019-Apr-13 00:59N 53°31' E 008°35'0 0.0
2019-Apr-13 00:27N 53°31' E 008°35'0 0.0
2019-Apr-12 23:58N 53°31' E 008°35'0 0.0
2019-Apr-12 23:28N 53°31' E 008°35'0 0.0
2019-Apr-12 22:59N 53°31' E 008°35'0 0.0
2019-Apr-12 22:28N 53°31' E 008°35'0 0.0
2019-Apr-12 22:01N 53°31' E 008°35'0 0.0
2019-Apr-12 21:31N 53°31' E 008°35'0 0.0
2019-Apr-12 21:01N 53°31' E 008°35'0 0.0
2019-Apr-12 20:28N 53°31' E 008°35'0 0.0
2019-Apr-12 20:00N 53°31' E 008°35'0 0.0
2019-Apr-12 19:29N 53°31' E 008°35'0 0.0
2019-Apr-12 19:00N 53°31' E 008°35'0 0.0
2019-Apr-12 18:28N 53°31' E 008°35'0 0.0
2019-Apr-12 18:00N 53°31' E 008°35'0 0.0
2019-Apr-12 17:30N 53°31' E 008°35'0 0.0
2019-Apr-12 17:00N 53°31' E 008°35'0 0.0
2019-Apr-12 16:28N 53°31' E 008°35'0 0.0
2019-Apr-12 15:58N 53°31' E 008°35'0 0.0
2019-Apr-12 15:28N 53°31' E 008°35'0 0.0
2019-Apr-12 14:58N 53°31' E 008°35'0 0.0
2019-Apr-12 14:28N 53°31' E 008°35'0 0.0
2019-Apr-12 13:58N 53°31' E 008°35'0 0.0
2019-Apr-12 13:28N 53°31' E 008°35'0 0.0
2019-Apr-12 12:58N 53°31' E 008°35'0 0.0
2019-Apr-12 12:30N 53°31' E 008°35'0 0.0
2019-Apr-12 12:00N 53°31' E 008°35'0 0.0
2019-Apr-12 11:30N 53°31' E 008°35'0 0.0
2019-Apr-12 10:57N 53°31' E 008°35'0 0.0
2019-Apr-12 10:30N 53°31' E 008°35'0 0.0
2019-Apr-12 09:59N 53°31' E 008°35'0 0.0
2019-Apr-12 09:31N 53°31' E 008°35'0 0.0
2019-Apr-12 09:00N 53°31' E 008°35'0 0.0
2019-Apr-12 08:30N 53°31' E 008°35'0 0.0
2019-Apr-12 08:00N 53°31' E 008°35'0 0.0
2019-Apr-12 07:30N 53°31' E 008°35'0 0.0
2019-Apr-12 06:59N 53°31' E 008°35'0 0.0
2019-Apr-12 06:29N 53°31' E 008°35'0 0.0
2019-Apr-12 05:59N 53°31' E 008°35'0 0.0
2019-Apr-12 05:29N 53°31' E 008°35'0 0.0
2019-Apr-12 04:59N 53°31' E 008°35'0 0.0
2019-Apr-12 04:29N 53°31' E 008°35'0 0.0
2019-Apr-12 03:59N 53°31' E 008°35'0 0.0
2019-Apr-12 03:29N 53°31' E 008°35'0 0.0
2019-Apr-12 02:59N 53°31' E 008°35'0 0.0
2019-Apr-12 02:29N 53°31' E 008°35'0 0.0
2019-Apr-12 01:59N 53°31' E 008°35'0 0.0
2019-Apr-12 01:29N 53°31' E 008°35'0 0.0
2019-Apr-12 00:59N 53°31' E 008°35'0 0.0
2019-Apr-12 00:30N 53°31' E 008°35'0 0.0
2019-Apr-11 23:58N 53°31' E 008°35'0 0.0
2019-Apr-11 23:28N 53°31' E 008°35'0 0.0
2019-Apr-11 22:58N 53°31' E 008°35'0 0.0
2019-Apr-11 22:28N 53°31' E 008°35'0 0.0
2019-Apr-11 21:58N 53°31' E 008°35'0 0.0
2019-Apr-11 21:25N 53°31' E 008°35'0 0.0
2019-Apr-11 21:00N 53°31' E 008°35'0 0.0
2019-Apr-11 20:30N 53°31' E 008°35'0 0.0
2019-Apr-11 19:59N 53°31' E 008°35'0 0.0
2019-Apr-11 19:29N 53°31' E 008°35'0 0.0
2019-Apr-11 18:59N 53°31' E 008°35'0 0.0
2019-Apr-11 18:29N 53°31' E 008°35'0 0.0
2019-Apr-11 17:59N 53°31' E 008°35'0 0.0
2019-Apr-11 17:29N 53°31' E 008°35'0 0.0
2019-Apr-11 16:56N 53°31' E 008°35'0 0.0
2019-Apr-11 16:28N 53°31' E 008°35'0 0.0
2019-Apr-11 15:58N 53°31' E 008°35'0 0.0
2019-Apr-11 15:25N 53°31' E 008°35'0 0.0
2019-Apr-11 14:58N 53°31' E 008°35'0 0.0
2019-Apr-11 14:28N 53°31' E 008°35'0 0.0
2019-Apr-11 13:58N 53°31' E 008°35'0 0.0
2019-Apr-11 13:28N 53°31' E 008°35'0 0.0
2019-Apr-11 12:58N 53°31' E 008°35'0 0.0
2019-Apr-11 12:25N 53°31' E 008°35'0 0.0
2019-Apr-11 11:58N 53°31' E 008°35'0 0.0
2019-Apr-11 11:28N 53°31' E 008°35'0 0.0
2019-Apr-11 10:58N 53°31' E 008°35'0 0.0
2019-Apr-11 10:30N 53°31' E 008°35'0 0.0
2019-Apr-11 10:00N 53°31' E 008°35'0 0.0
2019-Apr-11 09:27N 53°31' E 008°35'0 0.0
2019-Apr-11 09:00N 53°31' E 008°35'0 0.0
2019-Apr-11 08:30N 53°31' E 008°35'0 0.0
2019-Apr-11 08:00N 53°31' E 008°35'0 0.0
2019-Apr-11 07:29N 53°31' E 008°35'0 0.0
2019-Apr-11 06:59N 53°31' E 008°35'0 0.0
2019-Apr-11 06:26N 53°31' E 008°35'0 0.0
2019-Apr-11 05:59N 53°31' E 008°35'0 0.0
2019-Apr-11 05:29N 53°31' E 008°35'0 0.0
2019-Apr-11 05:00N 53°31' E 008°35'0 0.0
2019-Apr-11 04:28N 53°31' E 008°35'0 0.0
2019-Apr-11 03:58N 53°31' E 008°35'0 0.0
2019-Apr-11 03:28N 53°31' E 008°35'0 0.0
2019-Apr-11 02:58N 53°31' E 008°35'0 0.0
2019-Apr-11 02:28N 53°31' E 008°35'0 0.0
2019-Apr-11 01:58N 53°31' E 008°35'0 0.0
2019-Apr-11 01:29N 53°31' E 008°35'0 0.0
2019-Apr-11 00:58N 53°31' E 008°35'0 0.0
2019-Apr-11 00:28N 53°31' E 008°35'0 0.0
2019-Apr-10 23:59N 53°31' E 008°35'0 0.0
2019-Apr-10 23:29N 53°31' E 008°35'0 0.0
2019-Apr-10 22:59N 53°31' E 008°35'0 0.0
2019-Apr-10 22:28N 53°31' E 008°35'0 0.0
2019-Apr-10 21:53N 53°31' E 008°35'0 0.0
2019-Apr-10 21:28N 53°31' E 008°35'0 0.0
2019-Apr-10 20:58N 53°31' E 008°35'0 0.0
2019-Apr-10 20:29N 53°31' E 008°35'0 0.0
2019-Apr-10 19:58N 53°31' E 008°35'0 0.0
2019-Apr-10 19:29N 53°31' E 008°35'0 0.0
2019-Apr-10 18:58N 53°31' E 008°35'0 0.0
2019-Apr-10 18:28N 53°31' E 008°35'0 0.0
2019-Apr-10 17:58N 53°31' E 008°35'0 0.0
2019-Apr-10 17:28N 53°31' E 008°35'0 0.0
2019-Apr-10 16:59N 53°31' E 008°35'0 0.0
2019-Apr-10 16:29N 53°31' E 008°35'0 0.0
2019-Apr-10 15:58N 53°31' E 008°35'0 0.0
2019-Apr-10 15:29N 53°31' E 008°35'0 0.0
2019-Apr-10 15:00N 53°31' E 008°35'0 0.0
2019-Apr-10 14:30N 53°31' E 008°35'0 0.0
2019-Apr-10 14:00N 53°31' E 008°35'0 0.0
2019-Apr-10 13:30N 53°31' E 008°35'0 0.0
2019-Apr-10 13:00N 53°31' E 008°35'0 0.0
2019-Apr-10 12:30N 53°31' E 008°35'0 0.0
2019-Apr-10 12:00N 53°31' E 008°35'1223.9
2019-Apr-10 12:00N 53°30' E 008°36'1 3.0 050 / 61020.0 7.1-6.1 9.8
2019-Apr-10 11:30N 53°31' E 008°35'0 0.0
2019-Apr-10 11:00N 53°31' E 008°35'1223.9
2019-Apr-10 11:00N 53°30' E 008°36'1 3.0 060 / 81020.1 6.1-5.0 9.8
2019-Apr-10 10:30N 53°31' E 008°35'0 0.0
2019-Apr-10 10:00N 53°31' E 008°35'1206.7
2019-Apr-10 10:00N 53°30' E 008°36'1 3.0 050 / 81020.3 5.3-4.2 9.8
2019-Apr-10 09:30N 53°31' E 008°35'0 0.0
2019-Apr-10 09:00N 53°31' E 008°35'1101.4
2019-Apr-10 09:00N 53°30' E 008°36'1 3.1 070 / 121020.3 4.8-4.6 9.8
2019-Apr-10 08:30N 53°31' E 008°35'0 0.0
2019-Apr-10 08:00N 53°31' E 008°35'1199.0
2019-Apr-10 08:00N 53°30' E 008°36'1 3.0 070 / 81020.1 3.9-3.0 9.8
2019-Apr-10 07:30N 53°31' E 008°35'1 2.9
2019-Apr-10 07:00N 53°30' E 008°36'122.3 050 / 61020.0 2.4-3.1 9.8
2019-Apr-10 06:55N 53°31' E 008°35'0 0.0
2019-Apr-10 06:30N 53°31' E 008°35'0 0.0
2019-Apr-10 06:00N 53°31' E 008°35'1125.0
2019-Apr-10 06:00N 53°30' E 008°36'1 3.1 060 / 61019.7 1.3-3.4 9.8
2019-Apr-10 05:30N 53°31' E 008°35'0 0.0
2019-Apr-10 05:00N 53°31' E 008°35'1145.3
2019-Apr-10 05:00N 53°30' E 008°36'1 3.1 060 / 61019.3 0.8-3.6 9.9
2019-Apr-10 04:30N 53°31' E 008°35'0 0.0
2019-Apr-10 04:00N 53°31' E 008°35'197.7
2019-Apr-10 04:00N 53°30' E 008°36'1 2.7 040 / 41019.1 0.7-3.7 9.9
2019-Apr-10 03:26N 53°31' E 008°35'1 3.4
2019-Apr-10 03:00N 53°30' E 008°36'1125.0 060 / 41019.0 0.7-4.1 9.9
2019-Apr-10 02:59N 53°31' E 008°35'0 0.0
2019-Apr-10 02:26N 53°31' E 008°35'1 3.4
2019-Apr-10 02:00N 53°30' E 008°36'1127.9 050 / 61018.9 1.4-4.310.0
2019-Apr-10 01:59N 53°31' E 008°35'0 0.0
2019-Apr-10 01:29N 53°31' E 008°35'1 3.1
2019-Apr-10 01:00N 53°30' E 008°36'1125.0 060 / 61019.0 1.1-4.110.1
2019-Apr-10 00:59N 53°31' E 008°35'0 0.0
2019-Apr-10 00:30N 53°31' E 008°35'0 0.0
2019-Apr-10 00:00N 53°31' E 008°35'1167.9
2019-Apr-10 00:00N 53°30' E 008°36'1 2.9 070 / 61018.7 1.5-4.110.2
2019-Apr-09 23:28N 53°31' E 008°35'1 3.1
2019-Apr-09 23:00N 53°30' E 008°36'1383.7 070 / 81018.7 2.1-4.010.2
2019-Apr-09 22:59N 53°31' E 008°35'0 0.0
2019-Apr-09 22:28N 53°31' E 008°35'1 3.1
2019-Apr-09 22:00N 53°30' E 008°36'180.2 070 / 81018.8 2.7-4.010.2
2019-Apr-09 21:58N 53°31' E 008°35'0 0.0
2019-Apr-09 21:30N 53°31' E 008°35'0 0.0
2019-Apr-09 21:00N 53°31' E 008°35'1145.3
2019-Apr-09 21:00N 53°30' E 008°36'1 3.1 060 / 81018.6 3.6-4.210.1
2019-Apr-09 20:30N 53°31' E 008°35'0 0.0
2019-Apr-09 20:00N 53°31' E 008°35'1488.6
2019-Apr-09 20:00N 53°30' E 008°36'1 3.0 060 / 81018.3 4.8-4.210.0
2019-Apr-09 19:29N 53°31' E 008°35'1 3.0
2019-Apr-09 19:00N 53°30' E 008°36'196.0 060 / 81017.5 6.2-3.710.0
2019-Apr-09 18:59N 53°31' E 008°35'0 0.0
2019-Apr-09 18:26N 53°31' E 008°35'1 3.4
2019-Apr-09 18:00N 53°30' E 008°36'186.7 060 / 81016.7 8.2-3.810.0
2019-Apr-09 17:58N 53°31' E 008°35'0 0.0
2019-Apr-09 17:30N 53°31' E 008°35'1 3.0
2019-Apr-09 17:00N 53°30' E 008°36'199.5 070 / 101016.4 9.6-1.710.0
2019-Apr-09 16:59N 53°31' E 008°35'0 0.0
2019-Apr-09 16:30N 53°31' E 008°35'0 0.0
2019-Apr-09 16:00N 53°31' E 008°35'1137.8
2019-Apr-09 16:00N 53°30' E 008°36'1 3.0 060 / 81016.5 9.8-0.610.0
2019-Apr-09 15:29N 53°31' E 008°35'1 3.0
2019-Apr-09 15:00N 53°30' E 008°36'1137.8 070 / 121016.6 9.9-1.310.0
2019-Apr-09 14:59N 53°31' E 008°35'0 0.0
2019-Apr-09 14:29N 53°31' E 008°35'1 3.1
2019-Apr-09 14:00N 53°30' E 008°36'116.8 070 / 81016.8 9.9-1.210.0
2019-Apr-09 13:54N 53°31' E 008°35'0 0.0
2019-Apr-09 13:30N 53°31' E 008°35'0 0.0
2019-Apr-09 13:00N 53°31' E 008°35'1131.1
2019-Apr-09 13:00N 53°30' E 008°36'1 3.1 060 / 101016.9 9.6 0.3 9.7
2019-Apr-09 12:30N 53°31' E 008°35'0 0.0
2019-Apr-09 12:00N 53°31' E 008°35'1131.1
2019-Apr-09 12:00N 53°30' E 008°36'1 3.1 070 / 101017.0 9.6 0.3 9.7
2019-Apr-09 11:30N 53°31' E 008°35'0 0.0
2019-Apr-09 11:00N 53°31' E 008°35'1134.4
2019-Apr-09 11:00N 53°30' E 008°36'1 3.1 080 / 121017.1 9.4 0.8 9.9
2019-Apr-09 10:30N 53°31' E 008°35'0 0.0
2019-Apr-09 10:00N 53°31' E 008°35'1101.4
2019-Apr-09 10:00N 53°30' E 008°36'1 3.1 070 / 81017.4 8.5 1.010.0
2019-Apr-09 09:30N 53°31' E 008°35'1 2.9
2019-Apr-09 09:00N 53°30' E 008°36'147.1 070 / 101017.6 7.4 1.110.0
2019-Apr-09 08:58N 53°31' E 008°35'0 0.0
2019-Apr-09 08:30N 53°31' E 008°35'1 2.9
2019-Apr-09 08:00N 53°30' E 008°36'1214.9 070 / 81017.4 6.2 1.410.1
2019-Apr-09 07:59N 53°31' E 008°35'0 0.0
2019-Apr-09 07:29N 53°31' E 008°35'0 0.0
2019-Apr-09 07:00N 53°31' E 008°35'1112.0
2019-Apr-09 07:00N 53°30' E 008°36'1 2.7 060 / 81017.4 4.1 1.610.0
2019-Apr-09 06:26N 53°31' E 008°35'1 3.4
2019-Apr-09 06:00N 53°30' E 008°36'1199.0 060 / 61017.3 3.0 1.110.1
2019-Apr-09 05:59N 53°31' E 008°35'0 0.0
2019-Apr-09 05:29N 53°31' E 008°35'1 3.0
2019-Apr-09 05:00N 53°30' E 008°36'1206.7 060 / 61017.0 2.9 1.110.1
2019-Apr-09 04:59N 53°31' E 008°35'0 0.0
2019-Apr-09 04:29N 53°31' E 008°35'1 3.0
2019-Apr-09 04:00N 53°30' E 008°36'1199.0 060 / 61016.7 3.1 0.710.2
2019-Apr-09 03:59N 53°31' E 008°35'0 0.0
2019-Apr-09 03:29N 53°31' E 008°35'1 3.0
2019-Apr-09 03:00N 53°30' E 008°36'1199.1 060 / 61016.5 3.3 0.310.2
2019-Apr-09 02:59N 53°31' E 008°35'0 0.0
2019-Apr-09 02:29N 53°31' E 008°35'1 3.0
2019-Apr-09 02:00N 53°30' E 008°36'199.5 060 / 61016.5 3.5 0.110.3
2019-Apr-09 01:59N 53°31' E 008°35'0 0.0
2019-Apr-09 01:29N 53°31' E 008°35'0 0.0
2019-Apr-09 01:00N 53°31' E 008°35'1767.8
2019-Apr-09 01:00N 53°30' E 008°36'1 2.8 060 / 61016.0 4.0 0.110.3
2019-Apr-09 00:28N 53°31' E 008°35'1 3.2
2019-Apr-09 00:00N 53°30' E 008°36'154.8 060 / 81015.9 4.6-0.110.4
2019-Apr-08 23:58N 53°31' E 008°35'0 0.0
2019-Apr-08 23:28N 53°31' E 008°35'1 3.2
2019-Apr-08 23:00N 53°30' E 008°36'156.6 060 / 81015.5 5.3-0.310.4
2019-Apr-08 22:58N 53°31' E 008°35'0 0.0
2019-Apr-08 22:30N 53°31' E 008°35'0 0.0
2019-Apr-08 22:00N 53°31' E 008°35'1112.0
2019-Apr-08 22:00N 53°30' E 008°36'1 3.1 060 / 81015.1 6.3-0.510.7
2019-Apr-08 21:30N 53°31' E 008°35'0 0.0
2019-Apr-08 21:00N 53°31' E 008°35'1112.0
2019-Apr-08 21:00N 53°30' E 008°36'1 3.1 060 / 81014.9 7.1-0.610.7
2019-Apr-08 20:30N 53°31' E 008°35'0 0.0
2019-Apr-08 20:00N 53°31' E 008°35'1114.3
2019-Apr-08 20:00N 53°30' E 008°36'1 3.1 060 / 101014.5 8.1 0.210.8
2019-Apr-08 19:30N 53°31' E 008°35'0 0.0
2019-Apr-08 19:00N 53°31' E 008°35'1112.0
2019-Apr-08 19:00N 53°30' E 008°36'1 3.0 060 / 101014.0 9.3 0.910.8
2019-Apr-08 18:29N 53°31' E 008°35'1 3.0
2019-Apr-08 18:00N 53°30' E 008°36'1597.0 060 / 101013.3 11.2 2.210.8
2019-Apr-08 17:59N 53°31' E 008°35'0 0.0
2019-Apr-08 17:28N 53°31' E 008°35'0 0.0
2019-Apr-08 17:01N 53°31' E 008°35'188.1
2019-Apr-08 17:00N 53°30' E 008°36'1 3.1 060 / 81013.0 12.7 4.810.6
2019-Apr-08 16:30N 53°31' E 008°35'0 0.0
2019-Apr-08 16:00N 53°31' E 008°35'1244.3
2019-Apr-08 16:00N 53°30' E 008°36'1 3.0 080 / 101012.6 14.0 4.410.4
2019-Apr-08 15:30N 53°31' E 008°35'0 0.0
2019-Apr-08 15:00N 53°31' E 008°35'1245.1
2019-Apr-08 15:00N 53°30' E 008°36'1 3.0 060 / 81012.6 14.1 4.910.0
2019-Apr-08 14:30N 53°31' E 008°35'0 0.0
2019-Apr-08 14:00N 53°31' E 008°35'1244.3
2019-Apr-08 14:00N 53°30' E 008°36'1 3.0 050 / 81012.4 14.6 5.310.3
2019-Apr-08 13:30N 53°31' E 008°35'0 0.0
2019-Apr-08 13:00N 53°31' E 008°35'1298.6
2019-Apr-08 13:00N 53°30' E 008°36'1 2.7 050 / 81012.4 14.6 6.2 9.9
2019-Apr-08 12:26N 53°31' E 008°35'0 0.0
2019-Apr-08 12:01N 53°31' E 008°35'186.7
2019-Apr-08 12:00N 53°30' E 008°36'1 3.1 070 / 81012.1 15.5 7.2 9.8
2019-Apr-08 11:30N 53°31' E 008°35'0 0.0
2019-Apr-08 11:01N 53°31' E 008°35'188.1
2019-Apr-08 11:00N 53°30' E 008°36'1 2.6 070 / 101012.3 13.8 5.8 9.7
2019-Apr-08 10:25N 53°31' E 008°35'1 3.5
2019-Apr-08 10:00N 53°30' E 008°36'   070 / 81012.1 13.5 6.5 9.7

Dump ship's entire track history